HUA weather

Redstone Army Air Field
Redstone Arsnl Huntsville, Alabama, United States

Public forecast

Using degrees Fahrenheit for public forecast. Weather courtesy of forecast.io.

Current aviation weather report (METAR) for Redstone Army Air Field

Retrieved 2019/10/21 15:58 UTC (49 minutes ago):

KHUA 211558Z AUTO 19009KT 10SM OVC020 22/17 A2991 RMK AO2 SLP126 T02170174

Closest aviation forecast (TAF) to Redstone Army Air Field

Closest forecast is Huntsville International Carl T Jones Field, 5.1 nm (9.5 km) WSW. Retrieved 2019/10/21 12:22 UTC (4 hours ago):

TAF KHSV 211120Z 2112/2212 15010KT P6SM SCT050 BKN250 FM211600 17014G20KT P6SM SCT040 BKN100 FM212000 18015G23KT 4SM SHRA VCTS BKN008 OVC015CB FM220000 20010KT 4SM RA OVC008 FM220300 30008KT P6SM SCT015 BKN025 FM220700 32005KT P6SM SKC